Time;durP1;ratioP1;P1;durP2;ratioP2;P2;SDS_P1;SDS_P2;PMS_P1;PMS_P2;Temp;Humidity;BMP_temperature;BMP_pressure;BME280_temperature;BME280_humidity;BME280_pressure;Samples;Min_cycle;Max_cycle;Signal;HPM_P1;HPM_P2
2023/03/31 00:01:35;;;;;;;7.55;1.92;;;9.50;99.90;;;;;;5039699;28;20029;-66
2023/03/31 00:04:02;;;;;;;6.72;1.90;;;9.40;99.90;;;;;;5025722;28;20033;-68
2023/03/31 00:06:28;;;;;;;8.07;1.92;;;9.30;99.90;;;;;;5040540;28;20043;-68
2023/03/31 00:08:54;;;;;;;7.00;1.65;;;9.30;99.90;;;;;;5016594;28;20049;-67
2023/03/31 00:11:21;;;;;;;5.82;2.15;;;9.20;99.90;;;;;;5026063;28;20564;-68
2023/03/31 00:13:47;;;;;;;11.43;2.35;;;9.20;99.90;;;;;;5008855;28;20018;-67
2023/03/31 00:16:12;;;;;;;7.50;2.10;;;9.30;99.90;;;;;;5023783;28;20056;-68
2023/03/31 00:18:46;;;;;;;10.27;2.28;;;9.30;99.90;;;;;;5031632;28;20638;-65
2023/03/31 00:21:23;;;;;;;6.68;2.10;;;9.40;99.90;;;;;;5026020;28;20058;-68
2023/03/31 00:23:52;;;;;;;7.70;1.95;;;9.40;99.90;;;;;;5021981;28;20160;-66
2023/03/31 00:26:18;;;;;;;7.00;2.23;;;9.40;99.90;;;;;;5029350;28;20064;-68
2023/03/31 00:28:44;;;;;;;8.15;2.10;;;9.50;99.90;;;;;;5018309;28;20029;-64
2023/03/31 00:31:10;;;;;;;7.22;2.22;;;9.50;99.90;;;;;;5034475;28;20083;-67
2023/03/31 00:33:35;;;;;;;7.45;2.38;;;9.60;99.90;;;;;;5038320;28;20033;-66
2023/03/31 00:36:04;;;;;;;10.70;2.30;;;9.70;99.90;;;;;;5042951;28;20037;-68
2023/03/31 00:38:31;;;;;;;5.25;1.63;;;9.70;99.90;;;;;;5032177;28;20045;-68
2023/03/31 00:40:58;;;;;;;8.48;1.70;;;9.70;99.90;;;;;;5033246;28;20528;-68
2023/03/31 00:43:28;;;;;;;10.07;2.40;;;9.70;99.90;;;;;;5029363;28;20111;-67
2023/03/31 00:46:14;;;;;;;8.77;1.80;;;9.60;99.90;;;;;;5033556;28;20508;-67
2023/03/31 00:49:00;;;;;;;6.03;2.05;;;9.50;99.90;;;;;;5039450;28;20045;-67
2023/03/31 00:51:29;;;;;;;7.38;1.95;;;9.40;99.90;;;;;;5029800;28;20029;-68
2023/03/31 00:54:03;;;;;;;8.43;2.53;;;9.20;99.90;;;;;;5026220;28;20042;-68
2023/03/31 00:56:36;;;;;;;8.68;2.13;;;9.30;99.90;;;;;;5010342;28;20088;-67
2023/03/31 00:59:06;;;;;;;12.40;3.72;;;9.40;99.90;;;;;;5017633;28;20030;-67
2023/03/31 01:01:34;;;;;;;13.30;2.63;;;9.50;99.90;;;;;;5022743;28;20029;-68
2023/03/31 01:04:01;;;;;;;4.72;1.77;;;9.50;99.90;;;;;;5028549;28;20485;-68
2023/03/31 01:06:29;;;;;;;11.50;2.20;;;9.60;99.90;;;;;;5036551;28;20021;-65
2023/03/31 01:08:56;;;;;;;7.18;2.22;;;9.60;99.90;;;;;;5023097;28;20026;-68
2023/03/31 01:11:25;;;;;;;9.18;2.53;;;9.60;99.90;;;;;;5029976;28;20031;-67
2023/03/31 01:13:54;;;;;;;7.78;2.50;;;9.60;99.90;;;;;;5011743;28;21855;-66
2023/03/31 01:16:20;;;;;;;6.13;2.17;;;9.60;99.90;;;;;;5025211;28;20128;-68
2023/03/31 01:18:48;;;;;;;5.97;1.95;;;9.70;99.90;;;;;;5026861;28;20116;-63
2023/03/31 01:21:41;;;;;;;6.10;2.05;;;9.70;99.90;;;;;;5032915;28;20157;-67
2023/03/31 01:24:19;;;;;;;7.97;2.20;;;9.70;99.90;;;;;;5032965;28;20121;-68
2023/03/31 01:27:23;;;;;;;7.95;2.30;;;9.70;99.90;;;;;;5025276;28;20022;-68
2023/03/31 01:30:07;;;;;;;9.02;2.15;;;9.70;99.90;;;;;;5019515;28;20288;-63
2023/03/31 01:33:10;;;;;;;7.55;2.13;;;9.60;99.90;;;;;;5047949;28;20060;-68
2023/03/31 01:35:39;;;;;;;6.00;2.03;;;9.60;99.90;;;;;;5033307;28;20049;-67
2023/03/31 01:38:04;;;;;;;11.43;2.17;;;9.60;99.90;;;;;;5022423;28;20079;-67
2023/03/31 01:40:32;;;;;;;11.52;2.30;;;9.60;99.90;;;;;;5037425;28;20378;-68
2023/03/31 01:43:25;;;;;;;9.00;2.38;;;9.60;99.90;;;;;;5033331;28;20083;-68
2023/03/31 01:46:03;;;;;;;10.63;2.35;;;9.60;99.90;;;;;;5031769;28;20495;-62
2023/03/31 01:48:52;;;;;;;7.82;2.40;;;9.60;99.90;;;;;;5016624;28;20063;-65
2023/03/31 01:51:36;;;;;;;7.18;1.92;;;9.60;99.90;;;;;;5034394;28;20033;-68
2023/03/31 01:54:25;;;;;;;14.02;2.28;;;9.50;99.90;;;;;;5018182;28;20029;-67
2023/03/31 01:56:59;;;;;;;6.25;1.90;;;9.60;99.90;;;;;;5019440;28;20044;-63
2023/03/31 01:59:43;;;;;;;8.38;2.40;;;9.60;99.90;;;;;;5031066;28;20025;-68
2023/03/31 02:02:20;;;;;;;6.38;2.35;;;9.70;99.90;;;;;;5022614;28;20112;-66
2023/03/31 02:04:59;;;;;;;9.68;2.80;;;9.60;99.90;;;;;;5025617;28;20069;-68
2023/03/31 02:07:35;;;;;;;8.32;2.28;;;9.60;99.90;;;;;;5031734;28;20108;-68
2023/03/31 02:10:06;;;;;;;10.95;2.47;;;9.40;99.90;;;;;;5025496;28;21620;-68
2023/03/31 02:12:38;;;;;;;7.70;2.25;;;9.30;99.90;;;;;;5026906;28;20029;-67
2023/03/31 02:15:08;;;;;;;15.93;3.25;;;9.20;99.90;;;;;;5030992;28;20552;-68
2023/03/31 02:17:38;;;;;;;12.32;2.72;;;9.20;99.90;;;;;;5022738;28;20032;-67
2023/03/31 02:20:11;;;;;;;;;;;9.20;99.90;;;;;;5038838;28;20398;-68
2023/03/31 02:22:41;;;;;;;10.50;2.75;;;9.20;99.90;;;;;;5024287;28;20374;-68
2023/03/31 02:25:11;;;;;;;11.73;2.42;;;9.30;99.90;;;;;;5013616;28;20112;-68
2023/03/31 02:27:45;;;;;;;9.10;2.45;;;9.40;99.90;;;;;;5033212;28;21175;-66
2023/03/31 02:30:12;;;;;;;11.82;2.22;;;9.40;99.90;;;;;;5026442;28;20029;-65
2023/03/31 02:32:39;;;;;;;4.97;2.13;;;9.50;99.90;;;;;;5031311;28;20033;-67
2023/03/31 02:35:07;;;;;;;9.60;2.10;;;9.40;99.90;;;;;;5040522;28;20561;-66
2023/03/31 02:37:33;;;;;;;11.70;2.70;;;9.90;99.90;;;;;;5030105;28;20036;-67
2023/03/31 02:40:04;;;;;;;13.20;2.30;;;10.20;99.90;;;;;;5030949;28;20080;-66
2023/03/31 02:42:30;;;;;;;6.93;1.92;;;10.20;99.90;;;;;;5033027;28;20036;-65
2023/03/31 02:45:03;;;;;;;11.07;2.30;;;10.30;99.90;;;;;;5047725;28;20037;-65
2023/03/31 02:47:28;;;;;;;10.27;2.42;;;10.30;99.90;;;;;;5032666;28;20037;-67
2023/03/31 02:49:58;;;;;;;11.98;2.47;;;10.40;99.90;;;;;;5041230;28;20033;-62
2023/03/31 02:52:37;;;;;;;10.77;2.22;;;10.40;99.90;;;;;;5024468;28;20036;-65
2023/03/31 02:55:31;;;;;;;9.57;2.65;;;10.30;99.90;;;;;;5017697;28;20128;-66
2023/03/31 02:58:26;;;;;;;7.50;2.30;;;10.30;99.90;;;;;;5033437;28;20036;-65
2023/03/31 03:00:58;;;;;;;10.07;2.78;;;10.30;99.90;;;;;;5022428;28;20051;-62
2023/03/31 03:03:37;;;;;;;9.18;2.45;;;10.20;99.90;;;;;;5028246;28;20025;-66
2023/03/31 03:06:41;;;;;;;8.93;2.50;;;10.20;99.90;;;;;;5034831;28;20040;-67
2023/03/31 03:09:21;;;;;;;8.63;2.15;;;10.20;99.90;;;;;;5031995;28;20477;-66
2023/03/31 03:11:53;;;;;;;9.52;2.63;;;10.20;99.90;;;;;;5010931;28;20378;-65
2023/03/31 03:14:36;;;;;;;12.18;2.80;;;10.20;99.90;;;;;;5017827;28;20067;-65
2023/03/31 03:17:13;;;;;;;6.63;2.65;;;10.10;99.90;;;;;;5048352;28;20021;-66
2023/03/31 03:19:41;;;;;;;10.20;3.30;;;10.00;99.90;;;;;;5042851;28;20116;-66
2023/03/31 03:22:07;;;;;;;10.68;2.97;;;9.90;99.90;;;;;;5037952;28;20139;-65
2023/03/31 03:24:33;;;;;;;7.63;2.75;;;9.90;99.90;;;;;;5050451;28;20510;-66
2023/03/31 03:26:59;;;;;;;9.15;2.90;;;9.80;99.90;;;;;;5048135;28;20814;-65
2023/03/31 03:29:26;;;;;;;12.25;3.10;;;9.80;99.90;;;;;;5048772;28;20039;-66
2023/03/31 03:31:52;;;;;;;9.23;3.08;;;9.80;99.90;;;;;;5049238;28;20033;-66
2023/03/31 03:34:19;;;;;;;7.82;2.92;;;9.70;99.90;;;;;;5043877;28;20040;-66
2023/03/31 03:36:45;;;;;;;10.32;2.90;;;9.60;99.90;;;;;;5033044;28;20038;-65
2023/03/31 03:39:11;;;;;;;9.32;3.10;;;9.60;99.90;;;;;;5027992;28;20029;-67
2023/03/31 03:41:37;;;;;;;13.40;3.50;;;9.60;99.90;;;;;;5042606;28;20466;-66
2023/03/31 03:44:04;;;;;;;11.60;3.05;;;9.50;99.90;;;;;;5014183;28;20489;-66
2023/03/31 03:46:29;;;;;;;10.95;3.40;;;9.60;99.90;;;;;;5022308;28;20060;-66
2023/03/31 03:48:55;;;;;;;9.60;3.05;;;9.60;99.90;;;;;;5042264;28;20036;-62
2023/03/31 03:51:21;;;;;;;10.65;3.20;;;9.60;99.90;;;;;;5044594;28;20021;-67
2023/03/31 03:53:47;;;;;;;9.55;3.00;;;9.60;99.90;;;;;;5049174;28;20040;-66
2023/03/31 03:56:12;;;;;;;11.20;3.03;;;9.60;99.90;;;;;;5047683;28;20440;-66
2023/03/31 03:58:38;;;;;;;12.18;2.92;;;9.50;99.90;;;;;;5049553;28;20584;-65
2023/03/31 04:01:03;;;;;;;6.80;2.63;;;9.50;99.90;;;;;;5046412;28;20039;-66
2023/03/31 04:03:30;;;;;;;7.90;2.95;;;9.40;99.90;;;;;;5049416;28;20029;-66
2023/03/31 04:05:55;;;;;;;12.23;3.58;;;9.40;99.90;;;;;;5042195;28;20029;-63
2023/03/31 04:08:21;;;;;;;10.23;3.72;;;9.30;99.90;;;;;;5028870;28;20037;-66
2023/03/31 04:10:48;;;;;;;10.65;4.25;;;9.20;99.90;;;;;;5035023;28;20025;-66
2023/03/31 04:13:18;;;;;;;12.95;3.85;;;9.20;99.90;;;;;;5048391;28;20033;-65
2023/03/31 04:15:44;;;;;;;15.40;4.50;;;9.10;99.90;;;;;;5042097;28;20065;-66
2023/03/31 04:18:17;;;;;;;12.60;4.72;;;9.10;99.90;;;;;;5032424;28;20131;-65
2023/03/31 04:20:53;;;;;;;11.23;3.75;;;9.10;99.90;;;;;;5040658;28;20045;-67
2023/03/31 04:23:25;;;;;;;8.68;3.80;;;9.10;99.90;;;;;;5028386;28;20021;-66
2023/03/31 04:25:51;;;;;;;14.10;3.72;;;9.10;99.90;;;;;;5031918;28;20033;-66
2023/03/31 04:28:16;;;;;;;12.25;3.60;;;9.10;99.90;;;;;;5028154;28;20032;-66
2023/03/31 04:30:42;;;;;;;12.20;3.72;;;9.10;99.90;;;;;;5029283;28;20401;-66
2023/03/31 04:33:08;;;;;;;14.90;4.32;;;9.10;99.90;;;;;;5027160;28;20103;-67
2023/03/31 04:35:49;;;;;;;7.55;4.35;;;9.10;99.90;;;;;;5041348;28;20493;-65
2023/03/31 04:38:19;;;;;;;11.75;4.13;;;9.10;99.90;;;;;;5030084;28;20113;-66
2023/03/31 04:40:50;;;;;;;12.45;4.07;;;9.10;99.90;;;;;;5037504;28;20039;-66
2023/03/31 04:43:17;;;;;;;15.38;4.20;;;9.00;99.90;;;;;;5026031;28;20033;-66
2023/03/31 04:45:43;;;;;;;13.40;3.45;;;9.00;99.90;;;;;;5037002;28;20033;-66
2023/03/31 04:48:09;;;;;;;11.27;3.47;;;9.00;99.90;;;;;;5025505;28;20482;-66
2023/03/31 04:50:35;;;;;;;9.80;3.33;;;8.90;99.90;;;;;;5027553;28;20092;-67
2023/03/31 04:53:02;;;;;;;9.63;3.60;;;8.90;99.90;;;;;;5039910;28;20591;-63
2023/03/31 04:55:28;;;;;;;11.13;3.90;;;8.90;99.90;;;;;;5046302;28;20069;-67
2023/03/31 04:57:53;;;;;;;15.63;4.93;;;8.90;99.90;;;;;;5032261;28;20137;-65
2023/03/31 05:00:19;;;;;;;14.93;5.35;;;8.90;99.90;;;;;;5030048;28;20100;-65
2023/03/31 05:02:45;;;;;;;12.13;4.05;;;8.90;99.90;;;;;;5030941;28;20036;-66
2023/03/31 05:05:11;;;;;;;9.02;3.28;;;8.90;99.90;;;;;;5032904;28;20036;-66
2023/03/31 05:07:37;;;;;;;10.77;3.40;;;9.00;99.90;;;;;;5044350;28;20496;-66
2023/03/31 05:10:05;;;;;;;8.63;3.60;;;9.00;99.90;;;;;;5047651;28;20095;-62
2023/03/31 05:12:34;;;;;;;9.48;3.33;;;9.00;99.90;;;;;;5030709;28;20545;-67
2023/03/31 05:15:00;;;;;;;11.68;4.00;;;9.00;99.90;;;;;;5039445;28;20040;-63
2023/03/31 05:17:26;;;;;;;12.23;3.90;;;9.00;99.90;;;;;;5033660;28;20037;-66
2023/03/31 05:19:52;;;;;;;12.13;3.80;;;9.00;99.90;;;;;;5037867;28;20052;-66
2023/03/31 05:22:19;;;;;;;9.80;3.58;;;9.00;99.90;;;;;;5014328;28;20482;-66
2023/03/31 05:24:46;;;;;;;13.77;3.60;;;9.00;99.90;;;;;;5012520;28;20386;-66
2023/03/31 05:27:12;;;;;;;13.68;4.10;;;9.00;99.90;;;;;;5030392;28;20030;-66
2023/03/31 05:29:37;;;;;;;11.52;3.90;;;9.00;99.90;;;;;;5033344;28;20033;-66
2023/03/31 05:32:03;;;;;;;13.77;4.35;;;9.00;99.90;;;;;;5014761;28;20026;-63
2023/03/31 05:34:29;;;;;;;17.13;5.53;;;9.10;99.90;;;;;;5012429;28;20495;-65
2023/03/31 05:36:55;;;;;;;15.63;5.20;;;9.10;99.90;;;;;;5027152;28;20030;-65
2023/03/31 05:39:21;;;;;;;11.32;4.43;;;9.20;99.90;;;;;;5046530;28;20036;-67
2023/03/31 05:41:46;;;;;;;12.98;4.75;;;9.30;99.90;;;;;;5030384;28;20526;-66
2023/03/31 05:44:12;;;;;;;17.90;4.20;;;9.30;99.90;;;;;;5031009;28;20095;-66
2023/03/31 05:46:38;;;;;;;14.00;4.25;;;9.40;99.90;;;;;;5025535;28;20045;-67
2023/03/31 05:49:03;;;;;;;14.35;5.53;;;9.40;99.90;;;;;;5031444;28;20383;-63
2023/03/31 05:51:29;;;;;;;14.57;4.47;;;9.40;99.90;;;;;;5036849;28;20693;-66
2023/03/31 05:53:55;;;;;;;10.77;4.68;;;9.40;99.90;;;;;;5046066;28;20030;-66
2023/03/31 05:56:21;;;;;;;11.70;4.20;;;9.40;99.90;;;;;;5033752;28;20939;-66
2023/03/31 05:58:46;;;;;;;15.13;4.68;;;9.40;99.90;;;;;;5031504;28;20032;-67
2023/03/31 06:01:18;;;;;;;11.25;4.72;;;9.40;99.90;;;;;;5028852;28;20080;-65
2023/03/31 06:03:45;;;;;;;16.67;5.05;;;9.50;99.90;;;;;;5031910;28;20021;-65
2023/03/31 06:06:13;;;;;;;17.33;5.53;;;9.50;99.90;;;;;;5032580;28;20516;-65
2023/03/31 06:08:39;;;;;;;15.82;5.43;;;9.50;99.90;;;;;;5033189;28;20037;-66
2023/03/31 06:11:07;;;;;;;13.90;5.00;;;9.50;99.90;;;;;;5024097;28;20040;-62
2023/03/31 06:13:34;;;;;;;17.45;5.55;;;9.40;99.90;;;;;;5023118;28;20458;-66
2023/03/31 06:16:00;;;;;;;15.85;5.57;;;9.30;99.90;;;;;;5043925;28;20660;-65
2023/03/31 06:18:28;;;;;;;16.15;5.57;;;9.30;99.90;;;;;;5036812;28;20031;-66
2023/03/31 06:20:54;;;;;;;20.52;6.13;;;9.30;99.90;;;;;;5042413;28;20050;-66
2023/03/31 06:23:22;;;;;;;13.63;5.63;;;9.20;99.90;;;;;;5036323;28;20064;-67
2023/03/31 06:25:48;;;;;;;17.75;5.90;;;9.20;99.90;;;;;;5047721;28;20496;-67
2023/03/31 06:28:14;;;;;;;21.08;6.28;;;9.20;99.90;;;;;;5034424;28;20051;-67
2023/03/31 06:30:40;;;;;;;15.13;6.30;;;9.20;99.90;;;;;;5029768;28;20109;-67
2023/03/31 06:33:05;;;;;;;18.83;7.00;;;9.20;99.90;;;;;;5029356;28;20033;-63
2023/03/31 06:35:31;;;;;;;20.23;6.53;;;9.10;99.90;;;;;;5029939;28;20034;-67
2023/03/31 06:37:57;;;;;;;19.23;6.60;;;9.10;99.90;;;;;;5032088;28;20385;-66
2023/03/31 06:40:23;;;;;;;13.73;7.03;;;9.10;99.90;;;;;;5029636;28;20029;-68
2023/03/31 06:42:49;;;;;;;19.70;7.70;;;9.20;99.90;;;;;;5044770;28;20044;-67
2023/03/31 06:45:15;;;;;;;19.48;7.05;;;9.20;99.90;;;;;;5042159;28;20031;-65
2023/03/31 06:47:41;;;;;;;17.30;7.70;;;9.10;99.90;;;;;;5032061;28;20384;-67
2023/03/31 06:50:08;;;;;;;21.52;7.25;;;9.20;99.90;;;;;;5032428;28;20025;-62
2023/03/31 06:52:35;;;;;;;22.20;7.80;;;9.20;99.90;;;;;;5030903;28;20049;-66
2023/03/31 06:55:00;;;;;;;16.20;7.07;;;9.20;99.90;;;;;;5030200;28;20120;-63
2023/03/31 06:57:32;;;;;;;17.27;7.78;;;9.20;99.90;;;;;;5021923;28;20021;-68
2023/03/31 06:59:57;;;;;;;17.98;6.72;;;9.20;99.90;;;;;;5029903;28;20120;-68
2023/03/31 07:02:23;;;;;;;15.35;6.97;;;9.30;99.90;;;;;;5028059;28;20327;-67
2023/03/31 07:04:48;;;;;;;15.75;6.95;;;9.40;99.90;;;;;;5030523;28;20033;-66
2023/03/31 07:07:14;;;;;;;19.33;7.28;;;9.40;99.90;;;;;;5028067;28;20029;-67
2023/03/31 07:09:40;;;;;;;21.25;6.93;;;9.40;99.90;;;;;;5030198;28;20648;-66
2023/03/31 07:12:05;;;;;;;16.92;7.70;;;9.40;99.90;;;;;;5023223;28;20036;-63
2023/03/31 07:14:31;;;;;;;20.25;7.78;;;9.30;99.90;;;;;;5046120;28;20113;-67
2023/03/31 07:16:57;;;;;;;18.23;8.15;;;9.30;99.90;;;;;;5040318;28;20037;-64
2023/03/31 07:19:23;;;;;;;17.83;6.90;;;9.30;99.90;;;;;;5047432;28;20033;-69
2023/03/31 07:21:49;;;;;;;20.65;7.55;;;9.30;99.90;;;;;;5033056;28;20091;-66
2023/03/31 07:24:15;;;;;;;24.15;8.02;;;9.30;99.90;;;;;;5029040;28;20025;-67
2023/03/31 07:26:40;;;;;;;22.10;7.50;;;9.40;99.90;;;;;;5028854;28;20076;-66
2023/03/31 07:29:06;;;;;;;17.05;8.38;;;9.30;99.90;;;;;;5029257;28;20525;-63
2023/03/31 07:31:32;;;;;;;16.50;7.43;;;9.30;99.90;;;;;;5029494;28;20097;-67
2023/03/31 07:33:58;;;;;;;23.60;8.88;;;9.30;99.90;;;;;;5029901;28;20030;-68
2023/03/31 07:36:24;;;;;;;17.77;7.90;;;9.30;99.90;;;;;;5029071;28;20084;-66
2023/03/31 07:38:49;;;;;;;24.05;7.75;;;9.20;99.90;;;;;;5029852;28;20025;-67
2023/03/31 07:41:20;;;;;;;15.07;5.20;;;9.30;99.90;;;;;;5028133;28;20136;-66
2023/03/31 07:43:46;;;;;;;13.20;4.78;;;9.40;99.90;;;;;;5029871;28;20033;-66
2023/03/31 07:46:24;;;;;;;8.13;2.80;;;9.40;99.90;;;;;;5029018;28;20467;-66
2023/03/31 07:48:51;;;;;;;7.13;3.30;;;9.60;99.90;;;;;;5029585;28;20033;-67
2023/03/31 07:51:20;;;;;;;10.68;3.85;;;9.60;99.90;;;;;;5045826;28;20033;-66
2023/03/31 07:53:48;;;;;;;12.25;4.43;;;9.50;99.90;;;;;;5049420;28;20037;-66
2023/03/31 07:56:15;;;;;;;10.02;3.35;;;9.40;99.90;;;;;;5042612;28;20114;-67
2023/03/31 07:58:41;;;;;;;9.00;4.20;;;9.50;99.90;;;;;;5029416;28;20033;-68
2023/03/31 08:01:07;;;;;;;11.05;4.05;;;9.50;99.90;;;;;;5029305;28;20021;-63
2023/03/31 08:03:33;;;;;;;8.90;3.72;;;9.50;99.90;;;;;;5028606;28;20683;-68
2023/03/31 08:05:59;;;;;;;11.45;3.30;;;9.60;99.90;;;;;;5029518;28;20103;-66
2023/03/31 08:08:25;;;;;;;11.48;3.45;;;9.70;99.90;;;;;;5028298;28;20470;-67
2023/03/31 08:10:51;;;;;;;12.10;3.85;;;9.70;99.90;;;;;;5029386;28;20033;-68
2023/03/31 08:13:17;;;;;;;9.73;3.45;;;9.80;99.90;;;;;;5028424;28;20455;-68
2023/03/31 08:15:43;;;;;;;7.47;2.80;;;9.90;99.90;;;;;;5029218;28;20037;-68
2023/03/31 08:18:09;;;;;;;6.55;2.75;;;9.90;99.90;;;;;;5028130;28;20394;-63
2023/03/31 08:20:35;;;;;;;6.30;2.30;;;9.90;99.90;;;;;;5039250;28;20099;-65
2023/03/31 08:23:01;;;;;;;6.32;2.30;;;9.90;99.90;;;;;;5048879;28;20045;-67
2023/03/31 08:25:26;;;;;;;4.05;2.17;;;9.90;99.90;;;;;;5040983;28;20392;-67
2023/03/31 08:27:52;;;;;;;6.22;2.15;;;10.00;99.90;;;;;;5029096;28;20033;-65
2023/03/31 08:30:19;;;;;;;7.40;2.50;;;10.00;99.90;;;;;;5028192;28;20056;-66
2023/03/31 08:32:45;;;;;;;7.47;2.13;;;10.00;99.90;;;;;;5028908;28;20021;-66
2023/03/31 08:35:11;;;;;;;4.95;2.28;;;10.00;99.90;;;;;;5028563;28;20057;-62
2023/03/31 08:37:37;;;;;;;4.95;2.28;;;10.10;99.90;;;;;;5028527;28;20029;-67
2023/03/31 08:40:08;;;;;;;5.50;2.58;;;10.20;99.90;;;;;;5027250;28;20025;-68
2023/03/31 08:42:33;;;;;;;;;;;10.50;99.90;;;;;;5028438;28;20036;-65
2023/03/31 08:45:06;;;;;;;5.53;2.53;;;10.50;99.90;;;;;;5028834;28;19905;-66
2023/03/31 08:47:35;;;;;;;7.72;2.45;;;10.70;99.90;;;;;;5027945;28;20052;-66
2023/03/31 08:50:14;;;;;;;8.32;2.60;;;10.70;99.90;;;;;;5035610;28;20033;-67
2023/03/31 08:52:49;;;;;;;8.88;2.63;;;10.70;99.90;;;;;;5048647;28;20473;-67
2023/03/31 08:55:40;;;;;;;5.20;2.25;;;10.80;99.90;;;;;;5038920;28;20477;-62
2023/03/31 08:58:27;;;;;;;4.47;1.92;;;11.00;99.90;;;;;;5023449;28;20049;-66
2023/03/31 09:01:15;;;;;;;4.82;2.00;;;11.10;99.90;;;;;;5026758;28;20026;-68
2023/03/31 09:04:03;;;;;;;4.70;1.73;;;11.30;99.90;;;;;;5007822;28;20042;-67
2023/03/31 09:06:38;;;;;;;2.97;1.88;;;11.20;99.90;;;;;;5027845;28;20034;-67
2023/03/31 09:09:09;;;;;;;3.00;1.42;;;11.20;99.90;;;;;;5028638;28;20032;-66
2023/03/31 09:11:42;;;;;;;4.35;1.65;;;11.40;99.90;;;;;;5027788;28;20321;-67
2023/03/31 09:14:27;;;;;;;5.15;1.70;;;11.50;99.90;;;;;;5028297;28;20159;-67
2023/03/31 09:17:15;;;;;;;6.68;1.70;;;11.50;99.90;;;;;;5027647;28;20037;-68
2023/03/31 09:19:48;;;;;;;4.75;1.40;;;11.60;99.90;;;;;;5032512;28;20041;-67
2023/03/31 09:22:31;;;;;;;3.42;1.48;;;11.60;99.90;;;;;;5047655;28;20057;-64
2023/03/31 09:25:13;;;;;;;5.57;1.95;;;11.90;99.90;;;;;;5048392;28;20032;-67
2023/03/31 09:27:41;;;;;;;6.32;1.50;;;12.20;99.90;;;;;;5047893;28;20037;-67
2023/03/31 09:30:28;;;;;;;5.20;1.48;;;12.40;99.90;;;;;;5041069;28;20391;-68
2023/03/31 09:33:11;;;;;;;5.30;1.35;;;12.50;99.90;;;;;;5028361;28;20474;-67
2023/03/31 09:35:36;;;;;;;3.58;1.02;;;12.50;99.90;;;;;;5027523;28;20084;-66
2023/03/31 09:38:02;;;;;;;8.13;1.67;;;12.30;99.90;;;;;;5028369;28;20025;-67
2023/03/31 09:40:29;;;;;;;4.93;2.20;;;12.60;99.90;;;;;;5026190;28;20029;-67
2023/03/31 09:43:05;;;;;;;3.65;1.23;;;12.70;99.90;;;;;;5028306;28;20053;-67
2023/03/31 09:45:32;;;;;;;5.45;1.45;;;12.70;99.90;;;;;;5026284;28;20041;-66
2023/03/31 09:48:02;;;;;;;2.38;0.90;;;12.80;99.90;;;;;;5026925;28;20034;-67
2023/03/31 09:50:30;;;;;;;2.00;1.02;;;12.90;99.90;;;;;;5037568;28;20056;-67
2023/03/31 09:52:58;;;;;;;6.53;1.40;;;13.00;99.90;;;;;;5050639;28;20029;-66
2023/03/31 09:55:43;;;;;;;4.97;1.58;;;13.00;99.90;;;;;;5050907;28;20409;-66
2023/03/31 09:58:15;;;;;;;3.92;1.10;;;13.00;99.90;;;;;;5030673;28;20486;-67
2023/03/31 10:00:43;;;;;;;7.28;1.25;;;13.30;99.90;;;;;;5031429;28;20079;-67
2023/03/31 10:03:14;;;;;;;3.63;0.95;;;13.50;99.90;;;;;;5034357;28;20033;-66
2023/03/31 10:05:51;;;;;;;4.20;0.55;;;13.60;99.90;;;;;;5038062;28;20029;-67
2023/03/31 10:08:16;;;;;;;3.00;0.68;;;13.00;99.90;;;;;;5040409;28;20029;-64
2023/03/31 10:10:49;;;;;;;2.53;0.88;;;12.80;99.90;;;;;;5036549;28;20082;-66
2023/03/31 10:13:47;;;;;;;4.63;0.80;;;12.80;99.90;;;;;;5011549;28;20026;-66
2023/03/31 10:16:21;;;;;;;7.90;1.10;;;12.80;99.90;;;;;;5016913;28;20041;-66
2023/03/31 10:18:48;;;;;;;3.53;0.93;;;12.90;99.90;;;;;;5031213;28;20033;-67
2023/03/31 10:21:35;;;;;;;2.90;0.90;;;12.90;99.90;;;;;;5048243;28;20069;-67
2023/03/31 10:24:07;;;;;;;4.55;0.90;;;13.20;99.90;;;;;;5051260;28;20112;-67
2023/03/31 10:26:33;;;;;;;4.15;0.80;;;13.20;99.90;;;;;;5038205;28;20029;-67
2023/03/31 10:28:59;;;;;;;5.35;0.85;;;13.00;99.90;;;;;;5031247;28;20032;-65
2023/03/31 10:31:32;;;;;;;4.10;0.70;;;12.80;99.90;;;;;;5030155;28;20045;-66
2023/03/31 10:34:03;;;;;;;3.95;1.00;;;12.90;99.90;;;;;;5031424;28;20105;-66
2023/03/31 10:36:30;;;;;;;;;;;13.20;99.90;;;;;;5030574;28;20102;-66
2023/03/31 10:38:57;;;;;;;3.75;0.73;;;13.30;99.90;;;;;;5031134;28;19909;-66
2023/03/31 10:41:28;;;;;;;4.07;1.10;;;13.40;99.90;;;;;;5029332;28;20381;-66
2023/03/31 10:43:59;;;;;;;2.97;0.85;;;13.80;99.90;;;;;;5031279;28;20035;-67
2023/03/31 10:46:43;;;;;;;;;;;13.80;99.90;;;;;;5030648;28;20052;-66
2023/03/31 10:49:21;;;;;;;4.97;0.88;;;13.80;99.90;;;;;;5030889;28;19917;-67
2023/03/31 10:51:58;;;;;;;6.78;0.82;;;13.80;99.90;;;;;;5030772;28;20544;-67
2023/03/31 10:54:25;;;;;;;3.00;0.70;;;13.70;99.90;;;;;;5029867;28;20040;-67
2023/03/31 10:57:04;;;;;;;5.25;1.05;;;13.80;99.90;;;;;;5029857;28;20042;-66
2023/03/31 10:59:41;;;;;;;9.10;1.23;;;14.20;99.90;;;;;;5030071;28;20074;-67
2023/03/31 11:02:39;;;;;;;7.22;1.02;;;14.30;99.90;;;;;;5030489;28;20393;-65
2023/03/31 11:05:14;;;;;;;3.85;1.10;;;14.40;99.90;;;;;;5030020;28;20033;-67
2023/03/31 11:07:52;;;;;;;8.90;1.08;;;14.60;99.90;;;;;;5029836;28;20022;-67
2023/03/31 11:10:32;;;;;;;3.80;0.90;;;14.60;99.90;;;;;;5028039;28;20700;-66
2023/03/31 11:13:17;;;;;;;;;;;14.40;99.90;;;;;;5030975;28;20028;-66
2023/03/31 11:16:06;;;;;;;5.40;1.02;;;14.00;99.90;;;;;;5029488;28;19905;-73
2023/03/31 11:19:00;;;;;;;7.22;1.38;;;13.70;99.90;;;;;;5031841;28;20025;-74
2023/03/31 11:21:44;;;;;;;5.20;1.20;;;13.80;99.90;;;;;;5043710;28;20084;-72
2023/03/31 11:24:53;;;;;;;6.78;1.00;;;14.00;99.90;;;;;;5026337;28;20030;-66
2023/03/31 11:27:55;;;;;;;7.45;1.20;;;14.20;99.90;;;;;;5018469;28;20449;-72
2023/03/31 11:30:30;;;;;;;5.85;1.60;;;14.10;99.90;;;;;;5020287;28;20469;-69
2023/03/31 11:33:02;;;;;;;8.85;1.00;;;13.90;99.90;;;;;;5030469;28;20523;-73
2023/03/31 11:35:34;;;;;;;8.43;1.02;;;13.90;99.90;;;;;;5036715;28;20041;-70
2023/03/31 11:38:20;;;;;;;7.65;1.20;;;14.10;99.90;;;;;;5028516;28;20029;-73
2023/03/31 11:41:37;;;;;;;5.93;1.27;;;14.40;99.90;;;;;;5019472;28;20038;-73
2023/03/31 11:44:11;;;;;;;9.10;1.08;;;14.10;99.90;;;;;;5008333;28;20057;-73
2023/03/31 11:46:46;;;;;;;3.28;1.05;;;13.90;99.90;;;;;;5033354;28;20061;-70
2023/03/31 11:49:20;;;;;;;8.73;1.30;;;13.90;99.90;;;;;;5032470;28;20222;-72
2023/03/31 11:52:02;;;;;;;7.18;1.25;;;13.80;99.90;;;;;;5010162;28;20514;-73
2023/03/31 11:54:32;;;;;;;8.55;0.70;;;13.60;99.90;;;;;;5032676;28;20429;-72
2023/03/31 11:57:04;;;;;;;13.17;1.40;;;13.20;99.90;;;;;;5041011;28;20029;-73
2023/03/31 11:59:31;;;;;;;4.40;0.80;;;13.00;99.90;;;;;;5036325;28;20041;-73
2023/03/31 12:02:06;;;;;;;5.35;0.68;;;11.30;99.90;;;;;;5037278;28;20158;-70
2023/03/31 12:04:49;;;;;;;3.90;0.40;;;8.90;99.90;;;;;;5022941;28;20056;-70
2023/03/31 12:07:33;;;;;;;2.53;0.30;;;7.90;99.90;;;;;;5027940;28;20056;-67
2023/03/31 12:10:10;;;;;;;1.45;0.32;;;7.90;99.90;;;;;;5028440;28;20029;-70
2023/03/31 12:12:42;;;;;;;3.75;0.40;;;7.80;99.90;;;;;;5029442;28;20108;-74
2023/03/31 12:15:43;;;;;;;2.75;0.20;;;7.90;99.90;;;;;;5026173;28;20383;-79
2023/03/31 12:18:17;;;;;;;0.30;0.10;;;8.10;99.90;;;;;;5026191;28;20038;-75
2023/03/31 12:20:55;;;;;;;2.28;0.30;;;8.20;99.90;;;;;;5036976;28;20041;-77
2023/03/31 12:23:29;;;;;;;0.52;0.28;;;8.30;99.90;;;;;;5028305;28;20025;-80
2023/03/31 12:26:10;;;;;;;2.83;1.05;;;8.30;99.90;;;;;;5031055;28;20032;-79
2023/03/31 12:28:39;;;;;;;2.55;0.20;;;8.30;99.90;;;;;;5035938;28;20040;-80
2023/03/31 12:31:07;;;;;;;0.30;0.17;;;8.30;99.90;;;;;;5020765;28;20075;-77
2023/03/31 12:33:39;;;;;;;1.10;0.20;;;8.30;99.90;;;;;;5023287;28;20474;-77
2023/03/31 12:36:08;;;;;;;2.08;0.20;;;8.40;99.90;;;;;;5033409;28;20036;-78
2023/03/31 12:38:39;;;;;;;2.17;0.20;;;8.50;99.90;;;;;;5034001;28;20060;-78
2023/03/31 12:41:11;;;;;;;1.73;0.20;;;8.70;99.90;;;;;;5029577;28;20034;-78
2023/03/31 12:43:59;;;;;;;2.67;0.28;;;9.20;99.90;;;;;;5025695;28;20041;-79
2023/03/31 12:46:48;;;;;;;6.60;0.20;;;9.60;99.90;;;;;;5033012;28;20071;-71
2023/03/31 12:49:56;;;;;;;0.88;0.17;;;10.10;99.90;;;;;;5024575;28;20129;-75
2023/03/31 12:52:50;;;;;;;2.22;0.20;;;10.20;99.90;;;;;;5011961;28;20127;-79
2023/03/31 12:55:28;;;;;;;2.38;0.13;;;10.40;99.90;;;;;;5043842;28;20037;-78
2023/03/31 12:58:26;;;;;;;0.80;0.20;;;10.40;99.90;;;;;;5034460;28;20072;-73
2023/03/31 13:01:07;;;;;;;2.47;0.30;;;10.70;99.90;;;;;;5020008;28;20037;-76
2023/03/31 13:03:36;;;;;;;;;;;10.70;99.90;;;;;;5021910;28;20072;-78
2023/03/31 13:06:04;;;;;;;3.78;0.28;;;10.90;99.90;;;;;;5008921;28;19909;-79
2023/03/31 13:08:50;;;;;;;2.03;0.20;;;10.80;99.90;;;;;;5039182;28;20390;-70
2023/03/31 13:11:21;;;;;;;2.28;0.22;;;10.50;99.90;;;;;;5037857;28;20108;-77
2023/03/31 13:14:19;;;;;;;1.80;0.40;;;10.40;99.90;;;;;;5015063;28;20684;-71
2023/03/31 13:16:45;;;;;;;0.80;0.30;;;10.70;99.90;;;;;;5037074;28;20099;-76